Time;durP1;ratioP1;P1;durP2;ratioP2;P2;SDS_P1;SDS_P2;PMS_P1;PMS_P2;Temp;Humidity;BMP_temperature;BMP_pressure;BME280_temperature;BME280_humidity;BME280_pressure;Samples;Min_cycle;Max_cycle;Signal;HPM_P1;HPM_P2
2022/09/09 00:02:05;;;;;;;4.20;2.07;;;15.50;99.90;;;;;;5032114;28;20436;-68
2022/09/09 00:04:33;;;;;;;2.83;2.00;;;15.50;99.90;;;;;;5030393;28;20452;-67
2022/09/09 00:07:17;;;;;;;3.93;1.77;;;15.40;99.90;;;;;;5025609;28;20464;-65
2022/09/09 00:09:49;;;;;;;2.20;1.90;;;15.40;99.90;;;;;;5028238;28;20812;-65
2022/09/09 00:12:41;;;;;;;1.97;1.60;;;15.30;99.90;;;;;;5032706;28;20468;-69
2022/09/09 00:15:19;;;;;;;2.83;2.17;;;15.20;99.90;;;;;;5026246;28;20439;-67
2022/09/09 00:18:11;;;;;;;4.73;2.07;;;15.30;99.90;;;;;;5030822;28;20801;-67
2022/09/09 00:20:45;;;;;;;2.23;1.93;;;15.20;99.90;;;;;;5030941;28;20436;-65
2022/09/09 00:23:38;;;;;;;2.50;2.00;;;15.30;99.90;;;;;;5035595;28;20463;-68
2022/09/09 00:26:19;;;;;;;2.53;1.83;;;15.30;99.90;;;;;;5042659;28;20475;-66
2022/09/09 00:28:55;;;;;;;6.17;1.80;;;15.40;99.90;;;;;;5033131;28;20459;-66
2022/09/09 00:31:28;;;;;;;2.60;1.67;;;15.40;99.90;;;;;;5034335;28;20435;-66
2022/09/09 00:33:58;;;;;;;3.20;1.57;;;15.40;99.90;;;;;;5039294;28;20425;-69
2022/09/09 00:36:28;;;;;;;3.53;1.80;;;15.50;99.90;;;;;;5038359;28;20449;-66
2022/09/09 00:39:00;;;;;;;2.93;2.07;;;15.50;99.90;;;;;;5027398;28;20464;-66
2022/09/09 00:41:37;;;;;;;5.80;1.90;;;15.50;99.90;;;;;;5029195;28;20441;-66
2022/09/09 00:44:41;;;;;;;5.00;2.20;;;15.50;99.90;;;;;;5033143;28;21027;-66
2022/09/09 00:47:20;;;;;;;5.00;2.00;;;15.50;99.90;;;;;;4984953;28;20513;-65
2022/09/09 00:50:15;;;;;;;2.90;2.07;;;15.60;99.90;;;;;;5031163;28;20451;-66
2022/09/09 00:53:04;;;;;;;3.97;2.40;;;15.60;99.90;;;;;;5026854;28;20440;-66
2022/09/09 00:55:58;;;;;;;4.30;1.70;;;15.60;99.90;;;;;;5031210;28;20824;-67
2022/09/09 00:58:23;;;;;;;1.63;1.50;;;15.60;99.90;;;;;;5030556;28;20440;-65
2022/09/09 01:01:06;;;;;;;2.27;1.87;;;15.60;99.90;;;;;;5033297;28;20429;-66
2022/09/09 01:03:54;;;;;;;1.90;1.70;;;15.50;99.90;;;;;;5033181;28;20651;-65
2022/09/09 01:06:23;;;;;;;1.80;1.70;;;15.50;99.90;;;;;;5030288;28;20476;-65
2022/09/09 01:09:07;;;;;;;2.40;1.80;;;15.40;99.90;;;;;;5027995;28;20441;-66
2022/09/09 01:11:59;;;;;;;4.80;2.50;;;15.40;99.90;;;;;;5021321;28;20495;-65
2022/09/09 01:14:34;;;;;;;4.80;2.27;;;15.40;99.90;;;;;;5026993;28;20444;-65
2022/09/09 01:17:15;;;;;;;2.30;2.10;;;15.50;99.90;;;;;;5031768;28;21063;-65
2022/09/09 01:20:02;;;;;;;1.80;1.47;;;15.40;99.90;;;;;;5027672;28;20494;-70
2022/09/09 01:22:45;;;;;;;1.67;1.57;;;15.40;99.90;;;;;;5026074;28;20913;-66
2022/09/09 01:25:48;;;;;;;1.90;1.77;;;15.40;99.90;;;;;;5031218;28;20468;-68
2022/09/09 01:28:19;;;;;;;3.03;1.90;;;15.40;99.90;;;;;;5030530;28;20808;-65
2022/09/09 01:30:45;;;;;;;2.30;2.10;;;15.40;99.90;;;;;;5023348;28;20433;-66
2022/09/09 01:33:17;;;;;;;3.83;1.77;;;15.30;99.90;;;;;;5030261;28;20780;-67
2022/09/09 01:35:45;;;;;;;1.63;1.53;;;15.40;99.90;;;;;;5027255;28;20205;-66
2022/09/09 01:38:11;;;;;;;2.40;2.20;;;15.40;99.90;;;;;;5022773;28;20440;-66
2022/09/09 01:40:36;;;;;;;2.17;1.97;;;15.40;99.90;;;;;;5029478;28;20449;-66
2022/09/09 01:43:03;;;;;;;9.70;2.20;;;15.50;99.90;;;;;;5018877;28;20190;-67
2022/09/09 01:45:29;;;;;;;2.50;2.30;;;15.50;99.90;;;;;;5027847;28;20934;-67
2022/09/09 01:47:56;;;;;;;2.00;1.90;;;15.40;99.90;;;;;;5029871;28;20433;-66
2022/09/09 01:50:22;;;;;;;3.30;1.70;;;15.50;99.90;;;;;;5020100;28;20583;-66
2022/09/09 01:52:52;;;;;;;2.10;1.90;;;15.30;99.90;;;;;;5020026;28;20817;-66
2022/09/09 01:55:22;;;;;;;3.23;1.90;;;15.30;99.90;;;;;;5027345;28;20491;-66
2022/09/09 01:58:17;;;;;;;2.90;1.70;;;15.20;99.90;;;;;;5030061;28;20444;-67
2022/09/09 02:00:51;;;;;;;3.00;1.80;;;15.20;99.90;;;;;;5023994;28;20848;-66
2022/09/09 02:03:28;;;;;;;2.37;1.80;;;15.10;99.90;;;;;;5026451;28;21144;-67
2022/09/09 02:06:19;;;;;;;5.23;2.07;;;15.00;99.90;;;;;;5030751;28;20491;-65
2022/09/09 02:08:49;;;;;;;3.17;1.90;;;14.90;99.90;;;;;;5028039;28;20512;-68
2022/09/09 02:11:17;;;;;;;4.27;2.23;;;14.90;99.90;;;;;;5024732;28;20434;-68
2022/09/09 02:13:48;;;;;;;1.70;1.60;;;14.80;99.90;;;;;;5025905;28;20433;-68
2022/09/09 02:16:44;;;;;;;1.70;1.60;;;15.00;99.90;;;;;;5026707;28;20560;-68
2022/09/09 02:19:26;;;;;;;4.37;2.23;;;15.00;99.90;;;;;;5016960;28;20847;-67
2022/09/09 02:21:54;;;;;;;2.00;1.80;;;15.20;99.90;;;;;;5029624;28;20440;-68
2022/09/09 02:24:21;;;;;;;2.40;1.60;;;15.20;99.90;;;;;;5020021;28;20441;-66
2022/09/09 02:26:53;;;;;;;3.03;1.47;;;15.30;99.90;;;;;;5028880;28;20495;-67
2022/09/09 02:29:23;;;;;;;3.17;1.80;;;15.20;99.90;;;;;;5029126;28;20433;-68
2022/09/09 02:31:50;;;;;;;2.20;1.60;;;15.20;99.90;;;;;;5022514;28;20460;-66
2022/09/09 02:34:18;;;;;;;1.97;1.67;;;15.20;99.90;;;;;;5029504;28;20441;-72
2022/09/09 02:36:46;;;;;;;1.80;1.50;;;15.20;99.90;;;;;;5029273;28;20460;-67
2022/09/09 02:39:12;;;;;;;2.30;1.67;;;15.20;99.90;;;;;;5029685;28;20439;-65
2022/09/09 02:41:41;;;;;;;4.43;1.77;;;15.30;99.90;;;;;;5018306;28;20456;-66
2022/09/09 02:44:16;;;;;;;2.83;1.80;;;15.20;99.90;;;;;;5023856;28;20433;-66
2022/09/09 02:47:12;;;;;;;2.30;1.80;;;15.20;99.90;;;;;;5018890;28;20476;-67
2022/09/09 02:49:41;;;;;;;3.80;1.90;;;15.20;99.90;;;;;;5022347;28;20444;-68
2022/09/09 02:52:10;;;;;;;2.30;1.30;;;15.10;99.90;;;;;;5023060;28;20431;-68
2022/09/09 02:54:38;;;;;;;1.90;1.80;;;15.00;99.90;;;;;;5020530;28;20458;-66
2022/09/09 02:57:07;;;;;;;1.70;1.60;;;15.00;99.90;;;;;;5015815;28;20842;-65
2022/09/09 02:59:33;;;;;;;2.93;1.80;;;14.90;99.90;;;;;;5015669;28;20475;-67
2022/09/09 03:01:59;;;;;;;4.27;2.10;;;14.80;99.90;;;;;;5026046;28;20893;-66
2022/09/09 03:04:24;;;;;;;2.53;1.90;;;14.80;99.90;;;;;;5029991;28;20261;-65
2022/09/09 03:06:50;;;;;;;4.50;2.00;;;14.80;99.90;;;;;;5029940;28;20626;-66
2022/09/09 03:09:16;;;;;;;6.73;1.60;;;14.90;99.90;;;;;;5024524;28;20182;-67
2022/09/09 03:11:41;;;;;;;2.20;2.00;;;14.90;99.90;;;;;;5027768;28;20174;-65
2022/09/09 03:14:08;;;;;;;2.17;1.80;;;15.00;99.90;;;;;;5022704;28;20186;-66
2022/09/09 03:16:34;;;;;;;3.27;1.60;;;15.10;99.90;;;;;;5024734;28;20218;-66
2022/09/09 03:19:00;;;;;;;2.80;1.90;;;15.00;99.90;;;;;;5027040;28;20452;-65
2022/09/09 03:21:25;;;;;;;4.43;2.10;;;14.90;99.90;;;;;;5022491;28;20200;-66
2022/09/09 03:23:51;;;;;;;1.80;1.53;;;14.80;99.90;;;;;;5027105;28;20472;-68
2022/09/09 03:26:17;;;;;;;3.00;1.53;;;14.70;99.90;;;;;;5027036;28;20301;-65
2022/09/09 03:28:44;;;;;;;1.90;1.80;;;14.80;99.90;;;;;;5023389;28;20178;-66
2022/09/09 03:31:10;;;;;;;2.90;1.50;;;14.90;99.90;;;;;;5024470;28;20186;-68
2022/09/09 03:33:40;;;;;;;1.80;1.67;;;14.90;99.90;;;;;;5031165;28;21069;-65
2022/09/09 03:36:07;;;;;;;1.93;1.50;;;14.90;99.90;;;;;;5030917;28;20463;-71
2022/09/09 03:38:33;;;;;;;2.80;2.10;;;14.90;99.90;;;;;;5029050;28;20490;-68
2022/09/09 03:41:01;;;;;;;2.07;1.80;;;14.90;99.90;;;;;;5029675;28;20441;-68
2022/09/09 03:43:29;;;;;;;3.10;1.30;;;14.90;99.90;;;;;;5027586;28;20174;-67
2022/09/09 03:45:58;;;;;;;1.60;1.50;;;15.00;99.90;;;;;;5027261;28;20461;-65
2022/09/09 03:48:24;;;;;;;2.93;1.40;;;15.00;99.90;;;;;;5021996;28;20519;-69
2022/09/09 03:50:52;;;;;;;1.70;1.60;;;15.10;99.90;;;;;;5026968;28;20512;-67
2022/09/09 03:53:19;;;;;;;3.13;1.43;;;15.10;99.90;;;;;;5032234;28;20460;-66
2022/09/09 03:55:47;;;;;;;2.07;1.60;;;15.10;99.90;;;;;;5022934;28;20889;-65
2022/09/09 03:58:13;;;;;;;2.33;1.57;;;15.10;99.90;;;;;;5031928;28;20531;-70
2022/09/09 04:00:43;;;;;;;3.37;1.60;;;15.10;99.90;;;;;;5029367;28;20440;-66
2022/09/09 04:03:11;;;;;;;2.10;1.40;;;15.20;99.90;;;;;;5032086;28;20433;-65
2022/09/09 04:05:41;;;;;;;3.47;1.43;;;15.10;99.90;;;;;;5024714;28;20472;-66
2022/09/09 04:08:08;;;;;;;2.53;1.50;;;15.10;99.90;;;;;;5032373;28;20428;-68
2022/09/09 04:10:37;;;;;;;2.40;1.40;;;15.10;99.90;;;;;;5023924;28;20424;-67
2022/09/09 04:13:03;;;;;;;1.63;1.50;;;15.00;99.90;;;;;;5028819;28;20429;-66
2022/09/09 04:15:29;;;;;;;3.33;1.37;;;14.90;99.90;;;;;;5030269;28;20543;-65
2022/09/09 04:17:55;;;;;;;2.03;1.33;;;14.80;99.90;;;;;;5028241;28;20539;-66
2022/09/09 04:20:21;;;;;;;1.50;1.40;;;14.80;99.90;;;;;;5033288;28;20197;-65
2022/09/09 04:22:47;;;;;;;2.47;2.00;;;14.80;99.90;;;;;;5030547;28;20481;-66
2022/09/09 04:25:13;;;;;;;2.83;1.60;;;14.90;99.90;;;;;;5031256;28;20460;-67
2022/09/09 04:27:38;;;;;;;1.70;1.60;;;14.90;99.90;;;;;;5032057;28;20174;-68
2022/09/09 04:30:04;;;;;;;2.00;1.80;;;14.90;99.90;;;;;;5025940;28;20178;-66
2022/09/09 04:32:32;;;;;;;7.47;1.53;;;15.00;99.90;;;;;;5033105;28;20201;-66
2022/09/09 04:34:58;;;;;;;4.60;1.77;;;15.00;99.90;;;;;;5032063;28;20440;-65
2022/09/09 04:37:24;;;;;;;6.93;1.90;;;14.50;99.90;;;;;;5020311;28;20433;-65
2022/09/09 04:39:50;;;;;;;4.00;1.73;;;15.10;99.90;;;;;;5026688;28;20170;-69
2022/09/09 04:42:17;;;;;;;3.23;1.23;;;15.00;99.90;;;;;;5029917;28;20464;-65
2022/09/09 04:44:43;;;;;;;3.57;1.87;;;15.00;99.90;;;;;;5032631;28;20170;-67
2022/09/09 04:47:09;;;;;;;4.57;2.00;;;14.90;99.90;;;;;;5031392;28;20544;-67
2022/09/09 04:49:36;;;;;;;3.17;2.20;;;14.80;99.90;;;;;;5027809;28;20874;-67
2022/09/09 04:52:03;;;;;;;4.10;1.80;;;14.70;99.90;;;;;;5031605;28;20457;-66
2022/09/09 04:54:29;;;;;;;3.57;1.77;;;14.80;99.90;;;;;;5026687;28;20436;-65
2022/09/09 04:56:54;;;;;;;3.43;1.90;;;14.80;99.90;;;;;;5026979;28;20462;-65
2022/09/09 04:59:21;;;;;;;2.20;1.97;;;14.80;99.90;;;;;;5029386;28;20178;-66
2022/09/09 05:01:47;;;;;;;5.80;2.60;;;14.70;99.90;;;;;;5026765;28;20217;-65
2022/09/09 05:04:15;;;;;;;2.63;2.00;;;14.70;99.90;;;;;;5028680;28;20781;-65
2022/09/09 05:06:40;;;;;;;6.23;2.73;;;14.70;99.90;;;;;;5031108;28;20556;-67
2022/09/09 05:09:06;;;;;;;6.27;4.63;;;14.60;99.90;;;;;;5030603;28;21024;-65
2022/09/09 05:11:35;;;;;;;4.50;1.93;;;14.70;99.90;;;;;;5031809;28;20183;-66
2022/09/09 05:14:01;;;;;;;3.20;2.40;;;14.80;99.90;;;;;;5023185;28;20594;-66
2022/09/09 05:16:26;;;;;;;3.63;2.80;;;14.80;99.90;;;;;;5030659;28;20484;-65
2022/09/09 05:18:52;;;;;;;5.23;2.23;;;14.80;99.90;;;;;;5024999;28;20241;-65
2022/09/09 05:21:19;;;;;;;2.57;2.23;;;14.90;99.90;;;;;;5024366;28;20663;-66
2022/09/09 05:23:46;;;;;;;4.83;4.33;;;15.00;99.90;;;;;;5022023;28;20543;-65
2022/09/09 05:26:14;;;;;;;6.23;3.90;;;15.00;99.90;;;;;;5028442;28;20475;-65
2022/09/09 05:28:39;;;;;;;6.83;2.33;;;15.10;99.90;;;;;;5027949;28;20803;-65
2022/09/09 05:31:12;;;;;;;2.83;1.97;;;15.20;99.90;;;;;;5024168;28;20529;-65
2022/09/09 05:33:42;;;;;;;5.03;3.80;;;15.20;99.90;;;;;;5017118;28;20652;-65
2022/09/09 05:36:13;;;;;;;6.33;4.90;;;15.40;99.90;;;;;;5032011;28;20977;-65
2022/09/09 05:38:39;;;;;;;2.10;1.90;;;15.50;99.90;;;;;;5025691;28;20436;-68
2022/09/09 05:41:05;;;;;;;5.70;2.40;;;15.60;99.90;;;;;;5025623;28;20945;-65
2022/09/09 05:43:32;;;;;;;3.50;2.73;;;15.70;99.90;;;;;;5029319;28;20433;-65
2022/09/09 05:46:05;;;;;;;2.50;2.30;;;15.80;99.90;;;;;;5029809;28;20839;-68
2022/09/09 05:48:32;;;;;;;3.53;2.60;;;15.80;99.90;;;;;;5018825;28;20443;-65
2022/09/09 05:50:59;;;;;;;5.97;3.37;;;15.80;99.90;;;;;;5024716;28;20433;-66
2022/09/09 05:53:26;;;;;;;5.03;2.40;;;15.90;99.90;;;;;;5022958;28;20778;-66
2022/09/09 05:56:03;;;;;;;2.20;1.70;;;16.00;99.90;;;;;;5030086;28;20503;-65
2022/09/09 05:58:32;;;;;;;4.67;2.30;;;16.00;99.90;;;;;;5028462;28;20443;-65
2022/09/09 06:01:04;;;;;;;6.80;2.93;;;16.00;99.90;;;;;;5029737;28;20984;-69
2022/09/09 06:03:30;;;;;;;3.10;2.10;;;16.10;99.90;;;;;;5029091;28;20461;-66
2022/09/09 06:06:00;;;;;;;4.23;2.33;;;16.10;99.90;;;;;;5031828;28;20476;-69
2022/09/09 06:08:26;;;;;;;1.97;1.87;;;16.20;99.90;;;;;;5029189;28;20193;-68
2022/09/09 06:10:52;;;;;;;3.90;1.83;;;16.20;99.90;;;;;;5024746;28;20918;-68
2022/09/09 06:13:17;;;;;;;3.30;2.13;;;16.20;99.90;;;;;;5017473;28;20438;-65
2022/09/09 06:15:53;;;;;;;2.90;2.20;;;16.20;99.90;;;;;;5025810;28;20225;-65
2022/09/09 06:18:19;;;;;;;1.97;1.80;;;16.20;99.90;;;;;;5029828;28;20182;-66
2022/09/09 06:20:54;;;;;;;3.70;2.23;;;16.20;99.90;;;;;;5027783;28;20471;-65
2022/09/09 06:23:20;;;;;;;3.20;1.93;;;16.30;99.90;;;;;;5025111;28;20654;-66
2022/09/09 06:25:46;;;;;;;3.67;2.50;;;16.30;99.90;;;;;;5030540;28;20468;-66
2022/09/09 06:28:11;;;;;;;1.73;1.50;;;16.30;99.90;;;;;;5029080;28;20610;-69
2022/09/09 06:30:38;;;;;;;4.20;2.50;;;16.40;99.90;;;;;;5020610;28;20436;-66
2022/09/09 06:33:04;;;;;;;2.90;2.07;;;16.50;99.90;;;;;;5025979;28;20170;-65
2022/09/09 06:35:29;;;;;;;1.73;1.60;;;16.50;99.90;;;;;;5023397;28;20457;-65
2022/09/09 06:37:55;;;;;;;4.93;1.80;;;16.50;99.90;;;;;;5029359;28;20188;-66
2022/09/09 06:40:20;;;;;;;2.23;1.90;;;16.70;99.90;;;;;;5028502;28;20562;-67
2022/09/09 06:42:46;;;;;;;3.27;2.20;;;16.80;99.90;;;;;;5024523;28;20761;-65
2022/09/09 06:45:11;;;;;;;2.20;2.00;;;16.80;99.90;;;;;;5023156;28;20194;-70
2022/09/09 06:47:37;;;;;;;3.77;1.97;;;17.00;99.90;;;;;;4983712;28;20186;-70
2022/09/09 06:50:02;;;;;;;2.37;2.13;;;17.00;99.90;;;;;;4995697;28;20922;-65
2022/09/09 06:52:28;;;;;;;3.80;2.73;;;17.00;99.90;;;;;;5020223;28;20177;-66
2022/09/09 06:54:54;;;;;;;6.63;3.00;;;17.10;99.90;;;;;;5017129;28;20189;-70
2022/09/09 06:57:19;;;;;;;3.03;2.20;;;17.20;99.90;;;;;;5018093;28;20273;-68
2022/09/09 06:59:45;;;;;;;4.90;2.33;;;17.20;99.90;;;;;;5020464;28;20445;-66
2022/09/09 07:02:11;;;;;;;4.13;2.37;;;17.20;99.90;;;;;;5015886;28;20179;-67
2022/09/09 07:04:36;;;;;;;2.73;2.10;;;17.30;99.90;;;;;;5021211;28;20183;-67
2022/09/09 07:07:02;;;;;;;3.30;2.33;;;17.50;99.90;;;;;;5017922;28;20213;-68
2022/09/09 07:09:29;;;;;;;7.47;1.83;;;17.50;99.90;;;;;;5018731;28;20182;-65
2022/09/09 07:11:55;;;;;;;5.10;2.03;;;17.70;99.90;;;;;;5019896;28;20174;-67
2022/09/09 07:14:21;;;;;;;2.70;1.80;;;17.70;99.90;;;;;;5028450;28;20441;-72
2022/09/09 07:16:47;;;;;;;4.40;2.10;;;17.80;99.90;;;;;;5018653;28;20205;-65
2022/09/09 07:19:14;;;;;;;2.47;1.97;;;17.80;99.90;;;;;;5022136;28;20452;-66
2022/09/09 07:21:42;;;;;;;2.40;2.00;;;17.80;99.90;;;;;;5019655;28;20186;-67
2022/09/09 07:24:09;;;;;;;3.40;2.03;;;17.90;99.90;;;;;;5028259;28;20523;-65
2022/09/09 07:26:35;;;;;;;5.00;2.20;;;18.00;99.90;;;;;;5019564;28;20480;-68
2022/09/09 07:29:01;;;;;;;3.00;1.87;;;18.10;99.90;;;;;;5020490;28;20446;-67
2022/09/09 07:31:32;;;;;;;2.50;1.73;;;18.20;99.90;;;;;;5018510;28;20862;-70
2022/09/09 07:33:59;;;;;;;9.93;2.30;;;18.30;99.90;;;;;;5024929;28;20181;-67
2022/09/09 07:36:28;;;;;;;2.63;1.90;;;18.40;99.90;;;;;;5009922;28;21004;-68
2022/09/09 07:38:56;;;;;;;3.13;1.97;;;18.30;99.90;;;;;;5023450;28;20437;-68
2022/09/09 07:41:34;;;;;;;3.67;2.40;;;18.50;99.90;;;;;;5030523;28;20425;-68
2022/09/09 07:44:06;;;;;;;4.83;1.90;;;18.70;99.90;;;;;;5018987;28;20512;-67
2022/09/09 07:46:31;;;;;;;6.97;2.47;;;18.80;99.90;;;;;;5014245;28;20865;-67
2022/09/09 07:48:57;;;;;;;2.43;2.23;;;18.90;99.90;;;;;;5022102;28;20445;-66
2022/09/09 07:51:26;;;;;;;1.90;1.67;;;19.20;99.90;;;;;;5023778;28;20252;-66
2022/09/09 07:53:55;;;;;;;4.53;1.83;;;19.10;99.90;;;;;;5025756;28;20434;-66
2022/09/09 07:56:24;;;;;;;3.07;2.13;;;19.10;99.90;;;;;;5015433;28;20472;-67
2022/09/09 07:58:51;;;;;;;2.03;1.83;;;19.30;99.90;;;;;;5018435;28;20433;-70
2022/09/09 08:01:27;;;;;;;1.77;1.67;;;19.50;99.90;;;;;;5023868;28;20421;-71
2022/09/09 08:03:59;;;;;;;2.40;1.67;;;19.60;99.90;;;;;;5017116;28;20425;-66
2022/09/09 08:06:26;;;;;;;2.80;1.80;;;19.90;99.90;;;;;;5014028;28;20473;-67
2022/09/09 08:08:52;;;;;;;2.03;1.80;;;20.00;99.90;;;;;;5015121;28;20874;-66
2022/09/09 08:11:18;;;;;;;2.47;2.17;;;20.20;99.90;;;;;;5019804;28;20432;-65
2022/09/09 08:13:44;;;;;;;3.80;3.40;;;20.20;99.90;;;;;;5014758;28;20444;-65
2022/09/09 08:16:12;;;;;;;2.20;1.57;;;20.40;99.90;;;;;;5010983;28;20229;-65
2022/09/09 08:18:39;;;;;;;5.20;1.57;;;20.50;99.90;;;;;;5022098;28;20253;-66
2022/09/09 08:21:11;;;;;;;3.80;1.90;;;20.80;99.90;;;;;;5020875;28;20448;-65
2022/09/09 08:23:38;;;;;;;5.97;2.00;;;21.00;99.90;;;;;;5025570;28;20448;-64
2022/09/09 08:26:25;;;;;;;1.93;1.47;;;21.20;99.90;;;;;;5018338;28;20559;-66
2022/09/09 08:28:52;;;;;;;2.73;1.57;;;21.50;99.90;;;;;;5016986;28;20829;-65
2022/09/09 08:31:23;;;;;;;2.27;1.70;;;21.90;99.90;;;;;;5023304;28;20452;-67
2022/09/09 08:33:49;;;;;;;2.10;1.90;;;22.20;99.90;;;;;;5024170;28;20429;-66
2022/09/09 08:36:17;;;;;;;4.90;2.23;;;22.60;99.90;;;;;;5022762;28;20468;-66
2022/09/09 08:38:43;;;;;;;2.00;1.60;;;22.60;99.90;;;;;;5023330;28;20180;-65
2022/09/09 08:41:41;;;;;;;4.10;1.47;;;22.60;99.90;;;;;;5026848;28;20445;-65
2022/09/09 08:44:30;;;;;;;2.60;1.50;;;22.40;99.90;;;;;;5022446;28;20444;-65
2022/09/09 08:47:12;;;;;;;3.27;1.60;;;22.60;99.90;;;;;;5008391;28;20490;-66
2022/09/09 08:49:56;;;;;;;1.53;1.23;;;22.70;99.90;;;;;;5018546;28;20444;-67
2022/09/09 08:52:29;;;;;;;3.63;1.30;;;22.70;99.90;;;;;;5022849;28;20432;-65
2022/09/09 08:55:18;;;;;;;1.90;1.40;;;23.10;99.90;;;;;;5020434;28;20988;-65
2022/09/09 08:57:45;;;;;;;4.50;1.70;;;23.40;99.90;;;;;;5019065;28;20472;-66
2022/09/09 09:00:11;;;;;;;4.60;1.60;;;23.70;99.90;;;;;;5025968;28;20527;-66
2022/09/09 09:03:05;;;;;;;5.07;1.73;;;24.20;99.90;;;;;;5021413;28;20433;-68
2022/09/09 09:05:48;;;;;;;2.97;1.00;;;24.00;99.90;;;;;;5022587;28;20471;-66
2022/09/09 09:08:55;;;;;;;2.77;1.40;;;23.20;99.90;;;;;;5025829;28;20957;-66
2022/09/09 09:11:22;;;;;;;3.87;1.33;;;22.60;99.90;;;;;;4999162;28;20437;-65
2022/09/09 09:14:03;;;;;;;4.43;1.60;;;22.20;99.90;;;;;;5029707;28;20941;-65
2022/09/09 09:16:38;;;;;;;4.57;1.80;;;22.00;99.90;;;;;;5010325;28;20510;-64
2022/09/09 09:19:07;;;;;;;4.90;2.20;;;20.90;99.90;;;;;;5029928;28;20444;-65
2022/09/09 09:21:50;;;;;;;4.33;2.67;;;19.80;99.90;;;;;;5030648;28;20444;-65
2022/09/09 09:24:52;;;;;;;5.20;2.07;;;18.90;99.90;;;;;;5022640;28;20598;-64
2022/09/09 09:27:44;;;;;;;4.47;2.03;;;18.20;99.90;;;;;;5020271;28;20484;-65
2022/09/09 09:30:22;;;;;;;2.93;2.10;;;17.60;99.90;;;;;;5027776;28;20433;-66
2022/09/09 09:32:53;;;;;;;6.50;1.97;;;16.90;99.90;;;;;;5031873;28;20520;-65
2022/09/09 09:35:19;;;;;;;3.10;1.60;;;16.70;99.90;;;;;;5024576;28;20940;-64
2022/09/09 09:37:45;;;;;;;6.93;1.80;;;17.00;99.90;;;;;;5017575;28;20436;-65
2022/09/09 09:40:16;;;;;;;2.87;2.30;;;18.00;99.90;;;;;;5027540;28;20198;-66
2022/09/09 09:43:00;;;;;;;4.43;1.90;;;19.20;99.90;;;;;;5020568;28;20802;-65
2022/09/09 09:45:47;;;;;;;1.90;1.40;;;20.80;99.90;;;;;;5016543;28;20473;-65
2022/09/09 09:48:14;;;;;;;3.37;1.47;;;21.90;99.90;;;;;;5017369;28;20446;-66
2022/09/09 09:50:54;;;;;;;3.47;1.30;;;23.10;99.90;;;;;;5027084;28;20858;-67
2022/09/09 09:53:23;;;;;;;2.20;1.37;;;24.80;99.90;;;;;;5023499;28;21078;-65
2022/09/09 09:56:00;;;;;;;1.50;1.40;;;25.80;99.90;;;;;;5025309;28;20520;-66
2022/09/09 09:58:45;;;;;;;3.60;1.70;;;25.90;99.90;;;;;;5019340;28;20532;-65
2022/09/09 10:01:26;;;;;;;14.70;1.93;;;26.60;99.90;;;;;;5018019;28;21089;-65
2022/09/09 10:04:13;;;;;;;2.93;2.00;;;26.60;99.90;;;;;;5018814;28;20438;-65
2022/09/09 10:06:39;;;;;;;4.27;1.83;;;26.80;99.90;;;;;;5016177;28;20473;-65
2022/09/09 10:09:22;;;;;;;3.70;2.07;;;26.50;99.90;;;;;;5028139;28;20485;-67
2022/09/09 10:12:08;;;;;;;2.50;1.60;;;26.90;99.90;;;;;;5017895;28;20476;-71
2022/09/09 10:14:43;;;;;;;3.63;2.03;;;27.50;99.80;;;;;;5025840;28;20486;-69
2022/09/09 10:17:32;;;;;;;2.30;1.73;;;27.80;98.00;;;;;;5028933;22;20484;-68
2022/09/09 10:20:17;;;;;;;4.83;1.97;;;27.70;98.20;;;;;;5032990;28;20437;-68
2022/09/09 10:22:52;;;;;;;3.00;1.60;;;28.70;97.70;;;;;;5026416;28;20428;-68
2022/09/09 10:25:21;;;;;;;2.80;1.80;;;29.40;94.50;;;;;;5031912;28;21022;-68
2022/09/09 10:28:13;;;;;;;2.93;2.20;;;28.70;94.40;;;;;;5004762;28;20476;-69
2022/09/09 10:31:14;;;;;;;2.47;1.30;;;28.30;95.10;;;;;;5010881;28;20418;-67
2022/09/09 10:34:12;;;;;;;2.30;1.40;;;28.30;94.90;;;;;;5011034;28;20440;-67
2022/09/09 10:36:46;;;;;;;2.40;1.63;;;27.20;96.30;;;;;;5001615;28;20500;-67
2022/09/09 10:39:24;;;;;;;3.17;2.00;;;27.10;96.90;;;;;;5020283;28;20447;-66
2022/09/09 10:42:20;;;;;;;2.67;1.93;;;26.30;96.90;;;;;;5011851;28;20425;-65
2022/09/09 10:45:04;;;;;;;3.07;2.00;;;24.40;99.90;;;;;;5010458;28;20437;-65
2022/09/09 10:48:11;;;;;;;2.30;1.73;;;23.30;99.90;;;;;;4996314;28;20454;-65
2022/09/09 10:51:01;;;;;;;3.67;1.53;;;24.00;99.90;;;;;;4989372;28;20900;-65
2022/09/09 10:53:52;;;;;;;3.23;1.43;;;25.20;99.90;;;;;;4989851;28;20438;-65
2022/09/09 10:56:23;;;;;;;2.90;1.73;;;26.90;99.90;;;;;;5000882;28;20525;-65
2022/09/09 10:58:55;;;;;;;2.73;1.60;;;28.30;97.10;;;;;;5009490;28;20421;-65
2022/09/09 11:01:27;;;;;;;3.47;1.73;;;28.00;96.80;;;;;;5009339;28;20429;-65
2022/09/09 11:03:58;;;;;;;3.20;1.90;;;27.50;96.80;;;;;;5010619;28;20810;-65
2022/09/09 11:06:34;;;;;;;2.93;2.33;;;26.40;96.60;;;;;;5007906;28;20470;-65
2022/09/09 11:09:02;;;;;;;1.90;1.60;;;25.30;97.60;;;;;;5000450;28;20436;-65
2022/09/09 11:11:44;;;;;;;4.50;1.90;;;24.70;97.90;;;;;;5010477;28;20476;-65
2022/09/09 11:14:39;;;;;;;2.27;1.30;;;24.80;97.80;;;;;;5008305;28;20441;-65
2022/09/09 11:17:13;;;;;;;3.10;2.03;;;25.60;97.10;;;;;;4996284;28;22836;-65
2022/09/09 11:19:41;;;;;;;2.60;1.63;;;25.80;97.30;;;;;;5011887;28;20529;-65
2022/09/09 11:22:30;;;;;;;4.20;1.70;;;25.30;96.00;;;;;;5009809;28;21067;-65
2022/09/09 11:25:21;;;;;;;2.70;1.40;;;24.50;95.70;;;;;;5009213;28;20434;-65
2022/09/09 11:28:06;;;;;;;3.63;1.73;;;23.40;95.70;;;;;;4998641;28;20509;-65
2022/09/09 11:30:37;;;;;;;1.60;1.20;;;22.80;96.10;;;;;;5010576;28;20532;-65
2022/09/09 11:33:29;;;;;;;5.47;1.10;;;22.50;96.70;;;;;;5007783;28;20437;-65
2022/09/09 11:36:25;;;;;;;5.33;1.37;;;22.50;97.10;;;;;;5004638;28;20461;-65
2022/09/09 11:38:55;;;;;;;4.50;2.27;;;22.70;97.10;;;;;;5006410;28;20989;-64
2022/09/09 11:41:21;;;;;;;1.57;1.30;;;22.60;97.70;;;;;;5008153;28;20492;-64
2022/09/09 11:43:51;;;;;;;1.13;0.90;;;22.40;98.70;;;;;;5008585;28;20453;-64
2022/09/09 11:46:20;;;;;;;9.93;1.10;;;22.20;99.40;;;;;;5003509;28;20842;-64
2022/09/09 11:49:00;;;;;;;1.00;0.90;;;21.90;98.90;;;;;;5008946;28;20434;-65
2022/09/09 11:51:28;;;;;;;1.10;1.00;;;21.60;98.80;;;;;;5005015;28;20516;-65
2022/09/09 11:54:02;;;;;;;1.00;0.90;;;21.70;99.80;;;;;;4997186;28;20436;-65
2022/09/09 11:56:44;;;;;;;1.43;0.80;;;22.30;99.10;;;;;;5002454;28;20458;-65
2022/09/09 11:59:27;;;;;;;0.70;0.70;;;23.90;97.40;;;;;;5008728;28;20537;-65
2022/09/09 12:02:14;;;;;;;1.97;0.83;;;25.00;94.60;;;;;;5011803;28;20476;-65
2022/09/09 12:05:20;;;;;;;1.40;1.00;;;25.40;93.70;;;;;;5018747;28;20828;-65
2022/09/09 12:07:55;;;;;;;1.90;0.77;;;25.00;93.60;;;;;;5006574;28;20477;-65
2022/09/09 12:10:35;;;;;;;1.87;0.70;;;25.80;92.90;;;;;;5009389;28;20447;-65
2022/09/09 12:13:31;;;;;;;1.27;0.73;;;27.40;91.20;;;;;;5016748;28;20512;-65
2022/09/09 12:16:05;;;;;;;0.97;0.80;;;27.90;87.40;;;;;;5007035;28;20477;-66
2022/09/09 12:18:44;;;;;;;1.53;0.80;;;28.40;83.30;;;;;;5002181;28;20445;-67
2022/09/09 12:21:41;;;;;;;1.77;0.93;;;30.30;79.10;;;;;;5016156;28;20437;-67
2022/09/09 12:24:12;;;;;;;0.70;0.70;;;29.30;76.60;;;;;;5006669;28;20499;-67
2022/09/09 12:26:48;;;;;;;1.27;1.17;;;29.40;75.30;;;;;;5009076;28;20515;-67
2022/09/09 12:29:27;;;;;;;1.77;1.20;;;30.30;72.30;;;;;;5008084;28;21091;-66
2022/09/09 12:32:18;;;;;;;2.60;1.07;;;30.60;68.20;;;;;;5007492;28;20482;-66
2022/09/09 12:34:53;;;;;;;1.67;1.50;;;30.00;67.80;;;;;;5008572;28;20439;-67
2022/09/09 12:37:26;;;;;;;2.20;0.90;;;30.00;68.70;;;;;;5001285;28;21198;-67
2022/09/09 12:39:56;;;;;;;1.33;0.80;;;28.70;68.70;;;;;;5020336;28;20438;-67
2022/09/09 12:42:23;;;;;;;1.10;0.93;;;27.20;73.30;;;;;;5016223;28;20441;-67
2022/09/09 12:44:56;;;;;;;2.33;1.23;;;26.50;76.20;;;;;;5013769;28;20452;-67
2022/09/09 12:47:29;;;;;;;2.10;1.03;;;25.10;80.20;;;;;;5010429;28;20551;-67
2022/09/09 12:49:56;;;;;;;1.50;1.20;;;24.00;85.40;;;;;;5011620;28;20461;-67
2022/09/09 12:52:33;;;;;;;1.10;1.00;;;23.90;89.20;;;;;;5009753;28;20480;-67
2022/09/09 12:55:01;;;;;;;1.73;1.57;;;25.10;87.10;;;;;;5010828;28;20440;-67
2022/09/09 12:57:36;;;;;;;1.23;1.13;;;25.10;86.70;;;;;;5007406;28;20465;-67
2022/09/09 13:00:15;;;;;;;1.43;0.97;;;25.00;88.10;;;;;;5008971;28;20792;-67
2022/09/09 13:02:52;;;;;;;2.87;1.70;;;25.50;85.80;;;;;;5016677;28;20453;-67
2022/09/09 13:05:21;;;;;;;4.13;1.17;;;26.40;83.80;;;;;;5008590;28;20499;-67
2022/09/09 13:07:47;;;;;;;2.33;1.30;;;26.50;82.60;;;;;;5008897;28;20461;-67
2022/09/09 13:10:14;;;;;;;1.77;1.13;;;26.40;81.60;;;;;;5015829;28;20452;-67
2022/09/09 13:12:41;;;;;;;1.83;1.47;;;25.80;82.50;;;;;;5009427;28;20433;-67
2022/09/09 13:15:20;;;;;;;1.13;1.00;;;25.70;83.20;;;;;;5016921;28;20492;-68
2022/09/09 13:17:52;;;;;;;1.33;1.13;;;27.00;82.20;;;;;;5001715;28;20542;-68
2022/09/09 13:20:19;;;;;;;4.60;1.43;;;28.70;77.60;;;;;;5010666;28;20526;-67